Weather at Mountain View Farm Airport

Public forecast

Using degrees Fahrenheit for public forecast. Weather courtesy of forecast.io.

Closest aviation weather report (METAR) to Mountain View Farm Airport

Closest report is Morrisville-Stowe State Airport, 1.6 nm (3.0 km) NE.

2024/07/13 17:54 (retrieved 57 minutes ago)

KMVL 131754Z AUTO 22006KT 10SM FEW044 SCT060 28/20 A3009 RMK AO2 LTG DSNT SW RAB29E42 SLP188 P0000 60000 T02780200 10289 20206 58014

Closest aviation forecast (TAF) to Mountain View Farm Airport

Closest forecast is Edward F Knapp State Airport, 19.0 nm (35.2 km) S.

2024/07/13 18:24 (retrieved 27 minutes ago)

TAF KMPV 131720Z 1318/1418 VRB06KT P6SM VCSH BKN050 FM132200 32005KT P6SM SCT050 FM140300 00000KT P6SM SKC FM140500 00000KT 1/4SM FG VV001 FM141200 00000KT P6SM FEW001 FM141600 30005KT P6SM FEW060